createdAt,value
2023-01-28T00:02:13.115Z,44.90
2023-01-28T00:04:41.761Z,41.60
2023-01-28T00:07:10.260Z,54.70
2023-01-28T00:09:39.728Z,48.50
2023-01-28T00:12:08.223Z,46.60
2023-01-28T00:14:36.634Z,46.30
2023-01-28T00:17:06.399Z,44.80
2023-01-28T00:19:34.951Z,47.30
2023-01-28T00:22:04.621Z,49.80
2023-01-28T00:24:33.180Z,44.40
2023-01-28T00:27:01.721Z,51.10
2023-01-28T00:29:30.196Z,48.10
2023-01-28T00:31:58.694Z,55.00
2023-01-28T00:34:30.993Z,53.20
2023-01-28T00:36:59.446Z,50.50
2023-01-28T00:39:28.017Z,50.30
2023-01-28T00:41:56.538Z,55.20
2023-01-28T00:44:26.454Z,49.70
2023-01-28T00:46:54.833Z,49.50
2023-01-28T00:49:24.096Z,51.40
2023-01-28T00:51:52.532Z,52.00
2023-01-28T00:54:22.030Z,55.30
2023-01-28T00:56:50.687Z,53.10
2023-01-28T00:59:19.426Z,44.00
2023-01-28T01:01:49.172Z,47.90
2023-01-28T01:04:26.952Z,48.90
2023-01-28T01:06:55.619Z,52.80
2023-01-28T01:09:24.225Z,53.70
2023-01-28T01:11:52.685Z,50.80
2023-01-28T01:14:21.158Z,51.80
2023-01-28T01:16:49.843Z,49.90
2023-01-28T01:19:20.901Z,52.60
2023-01-28T01:21:51.054Z,52.30
2023-01-28T01:24:19.757Z,55.10
2023-01-28T01:26:52.661Z,54.00
2023-01-28T01:29:21.160Z,50.60
2023-01-28T01:31:49.780Z,52.20
2023-01-28T01:34:19.097Z,52.40
2023-01-28T01:36:50.241Z,54.40
2023-01-28T01:39:18.794Z,52.30
2023-01-28T01:41:47.814Z,52.40
2023-01-28T01:44:57.355Z,47.60
2023-01-28T01:47:32.324Z,48.20
2023-01-28T01:50:07.491Z,48.90
2023-01-28T01:55:10.478Z,47.30
2023-01-28T01:57:39.161Z,53.20
2023-01-28T02:00:08.643Z,47.50
2023-01-28T02:02:49.001Z,51.10
2023-01-28T02:05:20.472Z,48.20
2023-01-28T02:07:52.086Z,49.70
2023-01-28T02:10:21.394Z,50.60
2023-01-28T02:12:56.399Z,50.00
2023-01-28T02:15:29.871Z,51.90
2023-01-28T02:17:58.619Z,56.30
2023-01-28T02:20:53.093Z,52.90
2023-01-28T02:23:59.142Z,53.30
2023-01-28T02:26:55.296Z,51.40
2023-01-28T02:29:46.885Z,58.80
2023-01-28T02:32:26.102Z,52.40
2023-01-28T02:34:58.860Z,53.50
2023-01-28T02:37:49.392Z,51.70
2023-01-28T02:40:32.501Z,51.90
2023-01-28T02:43:01.040Z,53.60
2023-01-28T02:45:52.403Z,49.30
2023-01-28T02:48:23.814Z,42.20
2023-01-28T02:51:03.730Z,49.50
2023-01-28T02:53:52.500Z,51.10
2023-01-28T02:57:10.030Z,47.40
2023-01-28T02:59:57.878Z,52.90
2023-01-28T03:02:45.342Z,49.60
2023-01-28T03:05:23.067Z,48.20
2023-01-28T03:07:53.132Z,45.40
2023-01-28T03:10:25.778Z,53.80
2023-01-28T03:13:16.560Z,49.20
2023-01-28T03:16:07.762Z,45.10
2023-01-28T03:19:09.136Z,49.10
2023-01-28T03:22:02.144Z,50.80
2023-01-28T03:25:13.648Z,44.90
2023-01-28T03:28:15.523Z,45.20
2023-01-28T03:31:21.568Z,45.50
2023-01-28T03:34:13.543Z,41.60
2023-01-28T03:36:55.604Z,45.80
2023-01-28T03:39:40.509Z,42.90
2023-01-28T03:42:14.361Z,45.60
2023-01-28T03:45:04.419Z,45.80
2023-01-28T03:47:34.162Z,41.50
2023-01-28T03:50:06.765Z,42.20
2023-01-28T03:52:41.956Z,39.90
2023-01-28T03:55:40.065Z,40.80
2023-01-28T03:58:09.915Z,43.90
2023-01-28T04:00:42.144Z,43.20
2023-01-28T04:03:18.962Z,41.40
2023-01-28T04:06:04.607Z,40.80
2023-01-28T04:08:53.639Z,44.60
2023-01-28T04:11:41.756Z,42.50
2023-01-28T04:14:11.255Z,44.90
2023-01-28T04:16:46.704Z,43.10
2023-01-28T04:19:16.142Z,44.30
2023-01-28T04:21:45.961Z,46.60
2023-01-28T04:24:16.512Z,41.70
2023-01-28T04:26:45.163Z,40.20
2023-01-28T04:29:13.993Z,41.90
2023-01-28T04:31:42.613Z,42.40
2023-01-28T04:34:21.398Z,43.00
2023-01-28T04:37:13.099Z,46.70
2023-01-28T04:40:04.540Z,40.50
2023-01-28T04:43:05.456Z,49.70
2023-01-28T04:45:48.983Z,40.60
2023-01-28T04:48:56.153Z,41.30
2023-01-28T04:51:43.321Z,45.70
2023-01-28T04:54:23.493Z,45.70
2023-01-28T04:56:52.080Z,39.20
2023-01-28T04:59:20.692Z,51.10
2023-01-28T05:01:49.896Z,45.90
2023-01-28T05:04:18.626Z,41.90
2023-01-28T05:06:47.602Z,42.20
2023-01-28T05:09:19.026Z,41.10
2023-01-28T05:11:47.605Z,38.90
2023-01-28T05:14:16.785Z,40.50
2023-01-28T05:16:49.997Z,42.30
2023-01-28T05:19:19.847Z,38.20
2023-01-28T05:21:48.667Z,33.70
2023-01-28T05:24:28.289Z,36.00
2023-01-28T05:26:56.994Z,39.90
2023-01-28T05:29:25.725Z,37.00
2023-01-28T05:31:54.188Z,33.00
2023-01-28T05:34:22.862Z,39.20
2023-01-28T05:36:51.926Z,39.20
2023-01-28T05:39:34.557Z,38.60
2023-01-28T05:42:03.234Z,34.60
2023-01-28T05:44:34.223Z,37.50
2023-01-28T05:47:15.777Z,37.20
2023-01-28T05:49:53.030Z,35.60
2023-01-28T05:52:45.278Z,34.00
2023-01-28T05:55:22.689Z,32.10
2023-01-28T05:57:52.064Z,38.70
2023-01-28T06:00:25.383Z,36.80
2023-01-28T06:02:54.477Z,28.40
2023-01-28T06:05:24.795Z,36.90
2023-01-28T06:07:53.931Z,35.70
2023-01-28T06:10:22.465Z,33.70
2023-01-28T06:12:51.029Z,32.20
2023-01-28T06:15:39.305Z,32.10
2023-01-28T06:18:39.361Z,30.60
2023-01-28T06:21:13.786Z,35.40
2023-01-28T06:23:42.365Z,31.80
2023-01-28T06:26:10.926Z,29.40
2023-01-28T06:28:45.266Z,29.40
2023-01-28T06:31:14.038Z,30.70
2023-01-28T06:33:42.480Z,29.10
2023-01-28T06:36:10.915Z,31.70
2023-01-28T06:38:39.467Z,29.40
2023-01-28T06:41:10.375Z,29.00
2023-01-28T06:43:38.798Z,29.30
2023-01-28T06:46:07.411Z,30.70
2023-01-28T06:48:36.163Z,29.20
2023-01-28T06:51:08.163Z,30.00
2023-01-28T06:53:36.712Z,30.40
2023-01-28T06:56:05.841Z,44.70
2023-01-28T06:58:35.634Z,46.80
2023-01-28T07:01:04.231Z,29.50
2023-01-28T07:03:32.752Z,29.90
2023-01-28T07:06:01.249Z,32.20
2023-01-28T07:08:29.754Z,29.30
2023-01-28T07:10:58.335Z,32.30
2023-01-28T07:13:27.037Z,26.20
2023-01-28T07:15:55.575Z,30.20
2023-01-28T07:18:24.278Z,31.00
2023-01-28T07:20:52.997Z,28.90
2023-01-28T07:23:21.639Z,26.40
2023-01-28T07:25:50.209Z,31.90
2023-01-28T07:28:21.568Z,34.60
2023-01-28T07:30:53.805Z,31.40
2023-01-28T07:33:22.805Z,43.60
2023-01-28T07:35:51.596Z,34.30
2023-01-28T07:38:20.177Z,34.30
2023-01-28T07:40:48.992Z,30.90
2023-01-28T07:43:17.631Z,33.50
2023-01-28T07:45:48.687Z,34.70
2023-01-28T07:48:17.415Z,28.80
2023-01-28T07:50:48.664Z,29.70
2023-01-28T07:53:18.630Z,33.30
2023-01-28T07:55:47.277Z,28.10
2023-01-28T07:58:16.074Z,31.10
2023-01-28T08:00:44.818Z,31.30
2023-01-28T08:03:18.325Z,27.00
2023-01-28T08:05:49.989Z,27.50
2023-01-28T08:08:21.917Z,27.00
2023-01-28T08:10:57.677Z,28.50
2023-01-28T08:13:41.713Z,26.60
2023-01-28T08:16:18.041Z,25.80
2023-01-28T08:18:49.181Z,25.00
2023-01-28T08:24:00.456Z,23.60
2023-01-28T08:26:29.030Z,26.40
2023-01-28T08:28:57.512Z,23.60
2023-01-28T08:31:26.176Z,24.70
2023-01-28T08:33:54.670Z,27.20
2023-01-28T08:36:23.731Z,24.50
2023-01-28T08:38:55.447Z,25.10
2023-01-28T08:41:24.333Z,24.90
2023-01-28T08:43:53.034Z,28.70
2023-01-28T08:46:21.648Z,24.40
2023-01-28T08:48:50.947Z,25.30
2023-01-28T08:51:19.531Z,27.80
2023-01-28T08:53:48.033Z,27.60
2023-01-28T08:56:16.681Z,26.60
2023-01-28T08:58:45.259Z,23.70
2023-01-28T09:01:13.707Z,22.90
2023-01-28T09:03:42.179Z,23.90
2023-01-28T09:06:10.742Z,23.70
2023-01-28T09:08:40.544Z,22.10
2023-01-28T09:11:09.106Z,26.10
2023-01-28T09:13:37.752Z,25.60
2023-01-28T09:16:06.680Z,23.80
2023-01-28T09:18:35.636Z,22.50
2023-01-28T09:21:08.371Z,22.90
2023-01-28T09:23:38.311Z,24.90
2023-01-28T09:26:07.197Z,26.80
2023-01-28T09:28:36.034Z,24.20
2023-01-28T09:31:10.202Z,24.50
2023-01-28T09:33:40.538Z,22.40
2023-01-28T09:36:11.438Z,23.60
2023-01-28T09:38:40.041Z,24.80
2023-01-28T09:41:29.797Z,21.80
2023-01-28T09:44:26.806Z,21.40
2023-01-28T09:47:02.616Z,21.20
2023-01-28T09:49:49.965Z,22.80
2023-01-28T09:52:22.061Z,22.90
2023-01-28T09:54:56.338Z,25.10
2023-01-28T09:57:52.030Z,21.30
2023-01-28T10:00:45.757Z,20.80
2023-01-28T10:03:29.565Z,20.60
2023-01-28T10:06:07.337Z,24.90
2023-01-28T10:09:01.898Z,20.30
2023-01-28T10:11:47.600Z,19.80
2023-01-28T10:14:36.266Z,24.20
2023-01-28T10:17:14.263Z,21.90
2023-01-28T10:20:30.990Z,27.70
2023-01-28T10:25:31.171Z,21.30
2023-01-28T10:28:01.594Z,24.00
2023-01-28T10:30:37.139Z,23.30
2023-01-28T10:33:26.837Z,29.70
2023-01-28T10:35:56.670Z,27.30
2023-01-28T10:38:27.309Z,27.50
2023-01-28T10:41:01.940Z,23.50
2023-01-28T10:43:34.164Z,22.90
2023-01-28T10:46:28.939Z,22.30
2023-01-28T10:49:13.268Z,23.90
2023-01-28T10:51:43.634Z,26.00
2023-01-28T10:54:28.952Z,24.70
2023-01-28T10:57:07.696Z,24.50
2023-01-28T10:59:41.861Z,25.00
2023-01-28T11:02:32.824Z,22.50
2023-01-28T11:05:16.995Z,26.10
2023-01-28T11:07:45.643Z,23.10
2023-01-28T11:10:34.341Z,23.70
2023-01-28T11:13:05.903Z,21.20
2023-01-28T11:15:34.613Z,20.30
2023-01-28T11:21:01.230Z,24.90
2023-01-28T11:23:36.021Z,24.70
2023-01-28T11:26:15.267Z,23.00
2023-01-28T11:28:43.955Z,23.90
2023-01-28T11:31:15.630Z,29.80
2023-01-28T11:33:53.298Z,28.50
2023-01-28T11:36:24.783Z,26.90
2023-01-28T11:38:56.842Z,26.40
2023-01-28T11:41:34.784Z,27.20
2023-01-28T11:44:25.776Z,26.60
2023-01-28T11:47:06.619Z,31.10
2023-01-28T11:49:38.172Z,28.50
2023-01-28T11:52:19.554Z,29.10
2023-01-28T11:54:57.124Z,23.30
2023-01-28T11:58:03.005Z,31.40
2023-01-28T12:00:37.274Z,29.50
2023-01-28T12:03:05.834Z,30.00
2023-01-28T12:06:03.665Z,29.20
2023-01-28T12:08:45.614Z,28.10
2023-01-28T12:11:52.616Z,30.10
2023-01-28T12:14:44.285Z,44.40
2023-01-28T12:17:46.922Z,33.80
2023-01-28T12:20:39.134Z,26.80
2023-01-28T12:23:22.607Z,28.80
2023-01-28T12:26:09.029Z,29.30
2023-01-28T12:28:55.095Z,28.20
2023-01-28T12:31:35.775Z,32.00
2023-01-28T12:34:36.356Z,48.00
2023-01-28T12:37:38.539Z,34.40
2023-01-28T12:40:26.636Z,51.50
2023-01-28T12:43:00.349Z,36.70
2023-01-28T12:45:40.781Z,27.30
2023-01-28T12:48:20.175Z,32.80
2023-01-28T12:50:55.854Z,31.10
2023-01-28T12:53:33.952Z,23.80
2023-01-28T12:56:15.746Z,28.30
2023-01-28T12:59:06.169Z,27.20
2023-01-28T13:01:43.241Z,39.80
2023-01-28T13:04:49.559Z,33.00
2023-01-28T13:07:34.639Z,38.70
2023-01-28T13:10:27.796Z,30.00
2023-01-28T13:12:58.013Z,29.90
2023-01-28T13:15:26.406Z,29.20
2023-01-28T13:18:03.475Z,24.70
2023-01-28T13:20:54.754Z,26.10
2023-01-28T13:23:42.094Z,31.80
2023-01-28T13:26:18.125Z,26.80
2023-01-28T13:28:49.187Z,26.20
2023-01-28T13:31:20.080Z,29.50
2023-01-28T13:33:54.297Z,27.80
2023-01-28T13:36:37.441Z,27.10
2023-01-28T13:39:12.098Z,35.30
2023-01-28T13:41:45.672Z,35.50
2023-01-28T13:44:21.627Z,32.90
2023-01-28T13:46:50.200Z,35.90
2023-01-28T13:49:28.809Z,35.30
2023-01-28T13:52:05.211Z,32.10
2023-01-28T13:54:36.852Z,30.70
2023-01-28T13:57:15.022Z,33.60
2023-01-28T14:00:17.674Z,27.90
2023-01-28T14:03:06.630Z,29.40
2023-01-28T14:05:47.422Z,30.50
2023-01-28T14:08:47.161Z,36.10
2023-01-28T14:11:34.404Z,34.50
2023-01-28T14:14:27.297Z,33.40
2023-01-28T14:17:11.886Z,32.50
2023-01-28T14:19:41.033Z,35.40
2023-01-28T14:22:19.997Z,33.40
2023-01-28T14:24:48.640Z,35.80
2023-01-28T14:27:32.656Z,31.30
2023-01-28T14:30:30.711Z,32.40
2023-01-28T14:32:59.104Z,36.60
2023-01-28T14:35:31.579Z,35.90
2023-01-28T14:38:01.144Z,46.50
2023-01-28T14:40:30.447Z,80.70
2023-01-28T14:42:59.190Z,63.20
2023-01-28T14:45:36.467Z,45.60
2023-01-28T14:48:39.273Z,42.30
2023-01-28T14:51:22.962Z,45.90
2023-01-28T14:54:19.188Z,48.30
2023-01-28T14:56:58.718Z,49.00
2023-01-28T14:59:34.885Z,49.90
2023-01-28T15:02:12.943Z,49.30
2023-01-28T15:04:46.572Z,46.20
2023-01-28T15:07:28.532Z,43.70
2023-01-28T15:10:08.589Z,47.60
2023-01-28T15:12:39.754Z,52.50
2023-01-28T15:15:19.131Z,46.60
2023-01-28T15:17:49.836Z,48.90
2023-01-28T15:20:25.139Z,48.40
2023-01-28T15:22:54.913Z,42.20
2023-01-28T15:25:31.092Z,49.70
2023-01-28T15:28:04.568Z,43.10
2023-01-28T15:30:33.083Z,61.80
2023-01-28T15:33:13.005Z,49.00
2023-01-28T15:35:55.810Z,56.30
2023-01-28T15:38:27.771Z,73.10
2023-01-28T15:40:59.316Z,64.50
2023-01-28T15:43:34.726Z,70.30
2023-01-28T15:46:03.789Z,73.30
2023-01-28T15:48:34.973Z,76.70
2023-01-28T15:51:06.873Z,63.40
2023-01-28T15:53:44.852Z,64.20
2023-01-28T15:56:15.526Z,59.20
2023-01-28T15:58:44.168Z,61.20
2023-01-28T16:01:16.331Z,69.30
2023-01-28T16:03:46.638Z,68.90
2023-01-28T16:06:20.157Z,81.00
2023-01-28T16:09:01.220Z,82.70
2023-01-28T16:11:35.125Z,96.20
2023-01-28T16:14:04.530Z,100.40
2023-01-28T16:16:38.472Z,100.40
2023-01-28T16:19:07.635Z,95.30
2023-01-28T16:21:45.683Z,94.80
2023-01-28T16:24:30.539Z,87.90
2023-01-28T16:27:09.443Z,78.10
2023-01-28T16:29:37.828Z,73.10
2023-01-28T16:32:29.722Z,67.00
2023-01-28T16:34:59.374Z,63.50
2023-01-28T16:37:28.143Z,63.90
2023-01-28T16:40:00.346Z,64.60
2023-01-28T16:42:32.585Z,94.30
2023-01-28T16:45:01.013Z,93.70
2023-01-28T16:47:29.559Z,92.50
2023-01-28T16:50:01.471Z,77.80
2023-01-28T16:52:30.318Z,59.50
2023-01-28T16:54:59.143Z,50.50
2023-01-28T16:57:36.458Z,56.40
2023-01-28T17:00:06.761Z,49.80
2023-01-28T17:02:38.144Z,44.80
2023-01-28T17:05:16.003Z,44.90
2023-01-28T17:07:46.334Z,49.30
2023-01-28T17:10:15.880Z,51.00
2023-01-28T17:12:44.812Z,64.50
2023-01-28T17:15:13.173Z,69.90
2023-01-28T17:17:41.860Z,66.40
2023-01-28T17:20:17.384Z,72.10
2023-01-28T17:22:49.897Z,59.50
2023-01-28T17:25:18.644Z,60.40
2023-01-28T17:27:49.739Z,63.00
2023-01-28T17:30:29.593Z,75.30
2023-01-28T17:32:58.885Z,63.40
2023-01-28T17:35:27.322Z,55.80
2023-01-28T17:37:55.720Z,63.80
2023-01-28T17:40:24.325Z,63.20
2023-01-28T17:42:53.104Z,64.40
2023-01-28T17:45:22.576Z,70.70
2023-01-28T17:47:51.132Z,66.50
2023-01-28T17:50:19.459Z,67.40
2023-01-28T17:52:47.834Z,69.90
2023-01-28T17:55:16.482Z,68.70
2023-01-28T17:57:45.279Z,65.80
2023-01-28T18:00:14.430Z,59.60
2023-01-28T18:02:42.880Z,66.50
2023-01-28T18:05:12.864Z,64.30
2023-01-28T18:07:41.339Z,67.30
2023-01-28T18:10:10.432Z,76.50
2023-01-28T18:12:38.785Z,87.30
2023-01-28T18:15:10.284Z,79.00
2023-01-28T18:17:39.631Z,84.70
2023-01-28T18:20:08.416Z,89.40
2023-01-28T18:22:36.778Z,87.00
2023-01-28T18:25:05.867Z,79.50
2023-01-28T18:27:34.318Z,79.20
2023-01-28T18:30:02.739Z,70.60
2023-01-28T18:32:31.154Z,72.70
2023-01-28T18:34:59.502Z,73.50
2023-01-28T18:37:28.396Z,97.10
2023-01-28T18:39:56.774Z,108.60
2023-01-28T18:42:25.155Z,112.30
2023-01-28T18:44:54.152Z,135.00
2023-01-28T18:47:22.491Z,90.30
2023-01-28T18:49:51.096Z,95.60
2023-01-28T18:52:19.479Z,102.40
2023-01-28T18:54:47.941Z,95.30
2023-01-28T18:57:16.254Z,87.10
2023-01-28T18:59:44.888Z,81.60
2023-01-28T19:02:14.727Z,85.50
2023-01-28T19:04:44.214Z,84.90
2023-01-28T19:09:57.024Z,86.20
2023-01-28T19:12:25.919Z,96.00
2023-01-28T19:14:57.317Z,91.60
2023-01-28T19:17:27.140Z,93.90
2023-01-28T19:19:55.615Z,94.60
2023-01-28T19:22:24.241Z,92.00
2023-01-28T19:24:52.805Z,96.10
2023-01-28T19:27:21.681Z,103.60
2023-01-28T19:29:50.272Z,98.80
2023-01-28T19:32:19.078Z,91.20
2023-01-28T19:34:49.005Z,98.80
2023-01-28T19:37:17.660Z,106.10
2023-01-28T19:39:48.593Z,103.80
2023-01-28T19:42:17.066Z,95.60
2023-01-28T19:44:45.708Z,94.40
2023-01-28T19:47:14.561Z,91.10
2023-01-28T19:49:44.299Z,105.30
2023-01-28T19:52:12.805Z,99.60
2023-01-28T19:54:41.116Z,104.00
2023-01-28T19:57:09.364Z,101.60
2023-01-28T19:59:37.980Z,101.70
2023-01-28T20:02:06.340Z,101.50
2023-01-28T20:04:34.849Z,99.90
2023-01-28T20:07:03.449Z,92.40
2023-01-28T20:09:32.425Z,102.50
2023-01-28T20:12:00.820Z,100.30
2023-01-28T20:14:29.880Z,99.70
2023-01-28T20:16:58.743Z,100.30
2023-01-28T20:19:27.434Z,105.50
2023-01-28T20:21:55.900Z,101.70
2023-01-28T20:24:24.343Z,96.20
2023-01-28T20:26:54.236Z,109.60
2023-01-28T20:29:25.910Z,97.20
2023-01-28T20:32:14.874Z,91.30
2023-01-28T20:34:44.219Z,83.90
2023-01-28T20:37:12.959Z,102.90
2023-01-28T20:39:42.264Z,102.80
2023-01-28T20:42:13.347Z,97.30
2023-01-28T20:44:42.033Z,91.60
2023-01-28T20:47:10.512Z,102.10
2023-01-28T20:49:39.326Z,96.40
2023-01-28T20:52:07.628Z,106.90
2023-01-28T20:54:36.009Z,101.00
2023-01-28T20:57:08.008Z,112.40
2023-01-28T20:59:37.070Z,106.10
2023-01-28T21:02:05.531Z,111.40
2023-01-28T21:04:34.052Z,123.20
2023-01-28T21:07:02.540Z,121.30
2023-01-28T21:09:30.846Z,116.20
2023-01-28T21:11:59.682Z,113.40
2023-01-28T21:14:28.149Z,109.30
2023-01-28T21:16:56.707Z,125.60
2023-01-28T21:19:25.118Z,117.60
2023-01-28T21:21:53.460Z,126.10
2023-01-28T21:24:21.797Z,127.20
2023-01-28T21:26:50.308Z,136.50
2023-01-28T21:29:19.714Z,118.40
2023-01-28T21:31:48.258Z,119.10
2023-01-28T21:34:18.057Z,109.00
2023-01-28T21:36:46.498Z,109.10
2023-01-28T21:39:14.989Z,106.20
2023-01-28T21:41:44.039Z,101.50
2023-01-28T21:44:12.409Z,112.60
2023-01-28T21:46:40.854Z,108.10
2023-01-28T21:49:10.693Z,126.70
2023-01-28T21:51:47.400Z,98.80
2023-01-28T21:54:18.880Z,137.40
2023-01-28T21:56:49.229Z,135.80
2023-01-28T21:59:28.687Z,139.30
2023-01-28T22:02:06.108Z,104.40
2023-01-28T22:04:36.826Z,104.90
2023-01-28T22:07:07.826Z,120.50
2023-01-28T22:09:36.468Z,126.50
2023-01-28T22:12:09.675Z,131.00
2023-01-28T22:14:39.518Z,125.90
2023-01-28T22:17:11.514Z,116.70
2023-01-28T22:19:40.094Z,87.90
2023-01-28T22:22:08.366Z,81.60
2023-01-28T22:24:36.786Z,73.30
2023-01-28T22:27:05.157Z,71.90
2023-01-28T22:29:33.531Z,79.30
2023-01-28T22:32:04.725Z,83.00
2023-01-28T22:34:33.167Z,75.30
2023-01-28T22:37:01.682Z,76.40
2023-01-28T22:39:30.687Z,77.90
2023-01-28T22:41:59.185Z,70.70
2023-01-28T22:44:27.625Z,68.40
2023-01-28T22:46:56.027Z,66.00
2023-01-28T22:49:27.075Z,69.30
2023-01-28T22:51:55.439Z,62.10
2023-01-28T22:54:23.776Z,59.00
2023-01-28T22:56:52.233Z,63.90
2023-01-28T22:59:21.696Z,58.50
2023-01-28T23:01:50.072Z,60.80
2023-01-28T23:04:18.404Z,61.70
2023-01-28T23:06:48.271Z,61.30
2023-01-28T23:09:16.656Z,55.50
2023-01-28T23:11:44.994Z,51.40
2023-01-28T23:14:32.067Z,52.70
2023-01-28T23:17:19.598Z,53.30
2023-01-28T23:20:06.792Z,50.10
2023-01-28T23:22:54.068Z,55.60
2023-01-28T23:25:23.916Z,47.30
2023-01-28T23:27:52.386Z,55.20
2023-01-28T23:30:25.341Z,54.10
2023-01-28T23:32:57.711Z,56.10
2023-01-28T23:35:26.262Z,53.40
2023-01-28T23:37:55.709Z,47.80
2023-01-28T23:40:24.777Z,49.60
2023-01-28T23:42:55.031Z,57.20
2023-01-28T23:45:23.409Z,55.40
2023-01-28T23:47:52.589Z,49.60
2023-01-28T23:50:21.089Z,52.80
2023-01-28T23:52:49.507Z,56.40
2023-01-28T23:55:17.899Z,43.50
2023-01-28T23:57:46.215Z,52.30
